Dalton, Arkansas
Current Conditions -  °F | °C
As of 7:35 AM on Wednesday 22 Oct 2014 (Local Time) from KARG Reporting Station
Clear Clear  
Wind Chill: 42°   Ceiling: Unl
Heat Index: 46°   Visibility: 5mi
Dew Point: 37°   Wind: 8mph
Humidity: 71%   Direction: 30°NNE
Pressure: 30.25"   Gusts: NA
Location:  36.3332°N, 91.0542°W
Report Text: KARG 221235Z AUTO 03007KT 5SM CLR 08/03 A3025 RMK AO1
Loading
Personal Weather Stations






























Interactive Weather Map
Tropical Storm Tracking
New forecast layout! Learn more

10-Day Weather Forecast

Advertisements
Track Severe Weather on mobile